createdAt,value
2022-11-19T05:55:12.350Z,15.33
2022-11-19T05:57:38.798Z,14.25
2022-11-19T06:00:05.944Z,14.18
2022-11-19T06:02:32.544Z,14.52
2022-11-19T06:04:59.086Z,13.68
2022-11-19T06:07:25.627Z,13.77
2022-11-19T06:09:52.249Z,13.23
2022-11-19T06:12:18.880Z,14.57
2022-11-19T06:14:45.401Z,13.20
2022-11-19T06:17:11.884Z,12.38
2022-11-19T06:19:38.418Z,14.10
2022-11-19T06:22:05.368Z,13.02
2022-11-19T06:24:31.986Z,12.85
2022-11-19T06:26:58.513Z,13.63
2022-11-19T06:29:25.106Z,14.30
2022-11-19T06:31:51.665Z,14.57
2022-11-19T06:34:18.194Z,14.40
2022-11-19T06:36:50.105Z,14.55
2022-11-19T06:39:17.406Z,13.52
2022-11-19T06:41:44.059Z,14.27
2022-11-19T06:44:11.552Z,11.80
2022-11-19T06:46:38.491Z,12.93
2022-11-19T06:49:05.902Z,13.82
2022-11-19T06:51:33.050Z,13.32
2022-11-19T06:53:59.555Z,14.27
2022-11-19T06:56:26.080Z,11.80
2022-11-19T06:58:56.538Z,12.60
2022-11-19T07:01:23.087Z,13.73
2022-11-19T07:03:49.611Z,12.68
2022-11-19T07:06:16.145Z,11.63
2022-11-19T07:08:42.740Z,13.70
2022-11-19T07:11:27.181Z,13.60
2022-11-19T07:13:58.636Z,14.43
2022-11-19T07:16:34.486Z,14.25
2022-11-19T07:19:02.937Z,14.20
2022-11-19T07:21:30.335Z,14.13
2022-11-19T07:23:57.797Z,14.45
2022-11-19T07:26:24.885Z,14.35
2022-11-19T07:28:51.736Z,13.27
2022-11-19T07:31:18.337Z,15.30
2022-11-19T07:33:44.864Z,13.93
2022-11-19T07:36:17.896Z,12.75
2022-11-19T07:38:44.951Z,13.70
2022-11-19T07:41:29.885Z,13.95
2022-11-19T07:43:56.392Z,13.48
2022-11-19T07:46:23.275Z,13.93
2022-11-19T07:48:56.254Z,13.18
2022-11-19T07:51:23.825Z,12.63
2022-11-19T07:53:50.883Z,12.52
2022-11-19T07:56:17.793Z,13.85
2022-11-19T07:58:44.473Z,12.70
2022-11-19T08:01:21.814Z,11.93
2022-11-19T08:03:55.772Z,12.55
2022-11-19T08:06:25.063Z,12.40
2022-11-19T08:08:51.606Z,13.65
2022-11-19T08:11:18.547Z,13.13
2022-11-19T08:13:45.217Z,11.75
2022-11-19T08:16:14.110Z,11.98
2022-11-19T08:18:40.608Z,10.93
2022-11-19T08:21:11.768Z,11.27
2022-11-19T08:23:39.391Z,12.13
2022-11-19T08:26:08.895Z,11.95
2022-11-19T08:28:35.439Z,12.25
2022-11-19T08:31:06.917Z,11.60
2022-11-19T08:33:33.462Z,11.73
2022-11-19T08:35:59.992Z,13.90
2022-11-19T08:38:26.477Z,16.52
2022-11-19T08:41:13.620Z,13.98
2022-11-19T08:43:40.530Z,13.88
2022-11-19T08:46:07.804Z,14.02
2022-11-19T08:48:34.753Z,14.73
2022-11-19T08:51:06.329Z,14.38
2022-11-19T08:53:33.599Z,15.23
2022-11-19T08:56:00.108Z,13.07
2022-11-19T08:58:26.609Z,14.43
2022-11-19T09:00:54.438Z,13.33
2022-11-19T09:03:20.991Z,13.98
2022-11-19T09:05:47.857Z,13.50
2022-11-19T09:08:14.358Z,14.70
2022-11-19T09:10:41.057Z,15.48
2022-11-19T09:13:07.556Z,13.70
2022-11-19T09:15:34.101Z,13.88
2022-11-19T09:18:00.550Z,14.68
2022-11-19T09:20:27.061Z,13.85
2022-11-19T09:22:53.526Z,16.02
2022-11-19T09:25:20.040Z,13.80
2022-11-19T09:27:46.565Z,14.25
2022-11-19T09:30:13.689Z,13.55
2022-11-19T09:32:40.213Z,12.48
2022-11-19T09:35:07.170Z,12.10
2022-11-19T09:37:34.501Z,10.87
2022-11-19T09:40:01.154Z,11.98
2022-11-19T09:42:44.506Z,12.07
2022-11-19T09:45:21.625Z,12.55
2022-11-19T09:48:04.174Z,11.90
2022-11-19T09:50:53.226Z,11.50
2022-11-19T09:53:22.577Z,12.25
2022-11-19T09:55:50.823Z,12.40
2022-11-19T09:58:22.990Z,12.18
2022-11-19T10:00:49.562Z,12.75
2022-11-19T10:03:18.210Z,10.67
2022-11-19T10:06:13.979Z,12.05
2022-11-19T10:09:18.632Z,12.13
2022-11-19T10:12:01.798Z,12.68
2022-11-19T10:14:56.646Z,13.10
2022-11-19T10:18:08.601Z,14.90
2022-11-19T10:20:53.098Z,11.60
2022-11-19T10:23:43.829Z,12.35
2022-11-19T10:26:14.394Z,13.50
2022-11-19T10:28:46.473Z,13.10
2022-11-19T10:31:35.178Z,13.77
2022-11-19T10:34:14.288Z,14.52
2022-11-19T10:37:11.058Z,11.95
2022-11-19T10:39:41.963Z,12.52
2022-11-19T10:42:40.205Z,12.93
2022-11-19T10:45:06.745Z,11.20
2022-11-19T10:47:39.854Z,11.57
2022-11-19T10:50:11.117Z,11.13
2022-11-19T10:52:44.881Z,11.45
2022-11-19T10:55:24.029Z,12.45
2022-11-19T10:58:07.410Z,12.13
2022-11-19T11:00:35.247Z,12.27
2022-11-19T11:03:05.060Z,12.45
2022-11-19T11:05:32.220Z,12.18
2022-11-19T11:08:00.991Z,12.65
2022-11-19T11:10:27.418Z,11.70
2022-11-19T11:13:15.292Z,12.60
2022-11-19T11:15:49.057Z,13.45
2022-11-19T11:18:16.208Z,12.80
2022-11-19T11:20:50.109Z,12.60
2022-11-19T11:23:19.084Z,12.43
2022-11-19T11:26:08.882Z,12.73
2022-11-19T11:28:35.799Z,13.00
2022-11-19T11:31:03.453Z,12.63
2022-11-19T11:33:41.282Z,12.93
2022-11-19T11:36:19.748Z,13.07
2022-11-19T11:38:48.115Z,13.65
2022-11-19T11:44:15.300Z,13.18
2022-11-19T11:47:11.496Z,13.85
2022-11-19T11:49:41.006Z,14.23
2022-11-19T11:52:23.282Z,14.43
2022-11-19T11:55:06.580Z,13.35
2022-11-19T11:57:37.597Z,14.65
2022-11-19T12:00:32.699Z,14.52
2022-11-19T12:03:14.012Z,13.87
2022-11-19T12:05:52.766Z,15.68
2022-11-19T12:08:34.529Z,14.88
2022-11-19T12:11:02.833Z,14.15
2022-11-19T12:13:44.642Z,15.15
2022-11-19T12:16:41.534Z,14.13
2022-11-19T12:19:33.475Z,14.43
2022-11-19T12:22:25.033Z,14.48
2022-11-19T12:25:10.105Z,15.13
2022-11-19T12:28:01.923Z,15.02
2022-11-19T12:30:47.550Z,15.37
2022-11-19T12:33:38.553Z,13.82
2022-11-19T12:36:07.974Z,13.75
2022-11-19T12:38:36.367Z,13.45
2022-11-19T12:41:28.658Z,13.70
2022-11-19T12:43:58.780Z,15.67
2022-11-19T12:46:38.613Z,15.88
2022-11-19T12:49:42.790Z,16.52
2022-11-19T12:52:40.646Z,15.13
2022-11-19T12:55:25.467Z,16.77
2022-11-19T12:58:04.818Z,15.27
2022-11-19T13:00:34.645Z,17.40
2022-11-19T13:03:04.577Z,18.00
2022-11-19T13:05:46.373Z,15.95
2022-11-19T13:08:28.056Z,14.85
2022-11-19T13:11:01.797Z,15.90
2022-11-19T13:13:29.387Z,14.52
2022-11-19T13:16:14.436Z,15.07
2022-11-19T13:18:46.661Z,14.88
2022-11-19T13:21:22.402Z,15.27
2022-11-19T13:23:49.166Z,15.23
2022-11-19T13:26:30.290Z,16.52
2022-11-19T13:29:21.150Z,16.80
2022-11-19T13:31:53.162Z,14.95
2022-11-19T13:34:35.826Z,13.55
